地図

経路データ

SID SEASON NUMBER BASIN SUBBASIN NAME ISO_TIME NATURE LAT LON WMO_WIND WMO_PRES WMO_AGENCY TRACK_TYPE DIST2LAND LANDFALL IFLAG USA_AGENCY USA_ATCF_ID USA_LAT USA_LON USA_RECORD USA_STATUS USA_WIND USA_PRES USA_SSHS USA_R34_NE USA_R34_SE USA_R34_SW USA_R34_NW USA_R50_NE USA_R50_SE USA_R50_SW USA_R50_NW USA_R64_NE USA_R64_SE USA_R64_SW USA_R64_NW USA_POCI USA_ROCI USA_RMW USA_EYE TOKYO_LAT TOKYO_LON TOKYO_GRADE TOKYO_WIND TOKYO_PRES TOKYO_R50_DIR TOKYO_R50_LONG TOKYO_R50_SHORT TOKYO_R30_DIR TOKYO_R30_LONG TOKYO_R30_SHORT TOKYO_LAND CMA_LAT CMA_LON CMA_CAT CMA_WIND CMA_PRES HKO_LAT HKO_LON HKO_CAT HKO_WIND HKO_PRES NEWDELHI_LAT NEWDELHI_LON NEWDELHI_GRADE NEWDELHI_WIND NEWDELHI_PRES NEWDELHI_CI NEWDELHI_DP NEWDELHI_POCI REUNION_LAT REUNION_LON REUNION_TYPE REUNION_WIND REUNION_PRES REUNION_TNUM REUNION_CI REUNION_RMW REUNION_R34_NE REUNION_R34_SE REUNION_R34_SW REUNION_R34_NW REUNION_R50_NE REUNION_R50_SE REUNION_R50_SW REUNION_R50_NW REUNION_R64_NE REUNION_R64_SE REUNION_R64_SW REUNION_R64_NW BOM_LAT BOM_LON BOM_TYPE BOM_WIND BOM_PRES BOM_TNUM BOM_CI BOM_RMW BOM_R34_NE BOM_R34_SE BOM_R34_SW BOM_R34_NW BOM_R50_NE BOM_R50_SE BOM_R50_SW BOM_R50_NW BOM_R64_NE BOM_R64_SE BOM_R64_SW BOM_R64_NW BOM_ROCI BOM_POCI BOM_EYE BOM_POS_METHOD BOM_PRES_METHOD NADI_LAT NADI_LON NADI_CAT NADI_WIND NADI_PRES WELLINGTON_LAT WELLINGTON_LON WELLINGTON_WIND WELLINGTON_PRES DS824_LAT DS824_LON DS824_STAGE DS824_WIND DS824_PRES TD9636_LAT TD9636_LON TD9636_STAGE TD9636_WIND TD9636_PRES TD9635_LAT TD9635_LON TD9635_WIND TD9635_PRES TD9635_ROCI NEUMANN_LAT NEUMANN_LON NEUMANN_CLASS NEUMANN_WIND NEUMANN_PRES MLC_LAT MLC_LON MLC_CLASS MLC_WIND MLC_PRES USA_GUST BOM_GUST BOM_GUST_PER REUNION_GUST REUNION_GUST_PER USA_SEAHGT USA_SEARAD_NE USA_SEARAD_SE USA_SEARAD_SW USA_SEARAD_NW STORM_SPEED STORM_DIR
1855252N20274 1855 12 NA CS NOT_NAMED 1855-09-08 18:00:00 TS 19.9000 -85.9000 main 144 103 _____________O -1 19.9000 -85.9000 TD 30 10 288
1855252N20274 1855 12 NA CS NOT_NAMED 1855-09-08 21:00:00 TS 20.0503 -86.4048 main 94 53 _____________P -1 20.0503 -86.4048 TD 30 10 288
1855252N20274 1855 12 NA CS NOT_NAMED 1855-09-09 00:00:00 TS 20.2000 -86.9000 main 53 15 _____________O -1 20.2000 -86.9000 TD 30 10 288
1855252N20274 1855 12 NA CS NOT_NAMED 1855-09-09 03:00:00 TS 20.3499 -87.3726 main 10 0 _____________P -1 20.3499 -87.3726 TD 32 9 290
1855252N20274 1855 12 NA NA NOT_NAMED 1855-09-09 06:00:00 TS 20.5000 -87.8000 main 0 0 _____________O -1 20.5000 -87.8000 TS 35 8 292
1855252N20274 1855 12 NA NA NOT_NAMED 1855-09-09 09:00:00 TS 20.6498 -88.1651 main 0 0 _____________P -1 20.6498 -88.1651 TS 35 7 295
1855252N20274 1855 12 NA NA NOT_NAMED 1855-09-09 12:00:00 TS 20.8000 -88.5000 main 0 0 _____________O -1 20.8000 -88.5000 TS 35 7 294
1855252N20274 1855 12 NA NA NOT_NAMED 1855-09-09 15:00:00 TS 20.9425 -88.8576 main 0 0 _____________P -1 20.9425 -88.8576 TS 35 7 295
1855252N20274 1855 12 NA NA NOT_NAMED 1855-09-09 18:00:00 TS 21.1000 -89.2000 main 0 0 _____________O -1 21.1000 -89.2000 TS 35 7 300
1855252N20274 1855 12 NA GM NOT_NAMED 1855-09-09 21:00:00 TS 21.2999 -89.5150 main 11 11 _____________P -1 21.2999 -89.5150 TS 37 7 306
1855252N20274 1855 12 NA GM NOT_NAMED 1855-09-10 00:00:00 TS 21.5000 -89.8000 main 33 33 _____________O -1 21.5000 -89.8000 TS 40 6 304
1855252N20274 1855 12 NA GM NOT_NAMED 1855-09-10 03:00:00 TS 21.6500 -90.0651 main 49 49 _____________P -1 21.6500 -90.0651 TS 40 6 303
1855252N20274 1855 12 NA GM NOT_NAMED 1855-09-10 06:00:00 TS 21.8000 -90.3000 main 78 78 _____________O -1 21.8000 -90.3000 TS 40 5 310
1855252N20274 1855 12 NA GM NOT_NAMED 1855-09-10 09:00:00 TS 22.0000 -90.5150 main 102 102 _____________P -1 22.0000 -90.5150 TS 40 5 317
1855252N20274 1855 12 NA GM NOT_NAMED 1855-09-10 12:00:00 TS 22.2000 -90.7000 main 129 129 _____________O -1 22.2000 -90.7000 TS 40 5 318
1855252N20274 1855 12 NA GM NOT_NAMED 1855-09-10 15:00:00 TS 22.3575 -90.8651 main 158 158 _____________P -1 22.3575 -90.8651 TS 42 4 317
1855252N20274 1855 12 NA GM NOT_NAMED 1855-09-10 18:00:00 TS 22.5000 -91.0000 main 172 172 _____________O -1 22.5000 -91.0000 TS 45 4 323
1855252N20274 1855 12 NA GM NOT_NAMED 1855-09-10 21:00:00 TS 22.6500 -91.1001 main 186 186 _____________P -1 22.6500 -91.1001 TS 45 4 329
1855252N20274 1855 12 NA GM NOT_NAMED 1855-09-11 00:00:00 TS 22.8000 -91.2000 main 211 211 _____________O -1 22.8000 -91.2000 TS 45 4 321
1855252N20274 1855 12 NA GM NOT_NAMED 1855-09-11 03:00:00 TS 22.9500 -91.3575 main 240 240 _____________P -1 22.9500 -91.3575 TS 47 4 317
1855252N20274 1855 12 NA GM NOT_NAMED 1855-09-11 06:00:00 TS 23.1000 -91.5000 main 255 255 _____________O -1 23.1000 -91.5000 TS 50 4 327
1855252N20274 1855 12 NA GM NOT_NAMED 1855-09-11 09:00:00 TS 23.2500 -91.5725 main 270 270 _____________P -1 23.2500 -91.5725 TS 52 3 344
1855252N20274 1855 12 NA GM NOT_NAMED 1855-09-11 12:00:00 TS 23.4000 -91.6000 main 289 289 _____________O -1 23.4000 -91.6000 TS 55 3 351
1855252N20274 1855 12 NA GM NOT_NAMED 1855-09-11 15:00:00 TS 23.5500 -91.6075 main 309 299 _____________P -1 23.5500 -91.6075 TS 55 3 0
1855252N20274 1855 12 NA GM NOT_NAMED 1855-09-11 18:00:00 TS 23.7000 -91.6000 main 319 319 _____________O -1 23.7000 -91.6000 TS 55 3 0
1855252N20274 1855 12 NA GM NOT_NAMED 1855-09-11 21:00:00 TS 23.8500 -91.6150 main 330 330 _____________P -1 23.8500 -91.6150 TS 57 3 0
1855252N20274 1855 12 NA GM NOT_NAMED 1855-09-12 00:00:00 TS 24.0000 -91.6000 main 350 350 _____________O -1 24.0000 -91.6000 TS 60 3 17
1855252N20274 1855 12 NA GM NOT_NAMED 1855-09-12 03:00:00 TS 24.1500 -91.5150 main 367 364 _____________P -1 24.1500 -91.5150 TS 60 4 31
1855252N20274 1855 12 NA GM NOT_NAMED 1855-09-12 06:00:00 TS 24.3000 -91.4000 main 375 375 _____________O -1 24.3000 -91.4000 TS 60 4 33
1855252N20274 1855 12 NA GM NOT_NAMED 1855-09-12 09:00:00 TS 24.4500 -91.3000 main 382 382 _____________P -1 24.4500 -91.3000 TS 65 4 31
1855252N20274 1855 12 NA GM NOT_NAMED 1855-09-12 12:00:00 TS 24.6000 -91.2000 main 401 401 _____________O -1 24.6000 -91.2000 HU 70 4 31
1855252N20274 1855 12 NA GM NOT_NAMED 1855-09-12 15:00:00 TS 24.7500 -91.1000 main 410 410 _____________P -1 24.7500 -91.1000 HU 72 4 31
1855252N20274 1855 12 NA GM NOT_NAMED 1855-09-12 18:00:00 TS 24.9000 -91.0000 main 428 428 _____________O -1 24.9000 -91.0000 HU 75 3 29
1855252N20274 1855 12 NA GM NOT_NAMED 1855-09-12 21:00:00 TS 25.0500 -90.9149 main 436 435 _____________P -1 25.0500 -90.9149 HU 77 4 31
1855252N20274 1855 12 NA GM NOT_NAMED 1855-09-13 00:00:00 TS 25.2000 -90.8000 main 435 424 _____________O -1 25.2000 -90.8000 HU 80 4 44
1855252N20274 1855 12 NA GM NOT_NAMED 1855-09-13 03:00:00 TS 25.3501 -90.6001 main 413 402 _____________P -1 25.3501 -90.6001 HU 82 5 50
1855252N20274 1855 12 NA GM NOT_NAMED 1855-09-13 06:00:00 TS 25.5000 -90.4000 main 402 390 _____________O -1 25.5000 -90.4000 HU 85 4 43
1855252N20274 1855 12 NA GM NOT_NAMED 1855-09-13 09:00:00 TS 25.6499 -90.2849 main 390 368 _____________P -1 25.6499 -90.2849 HU 87 4 31
1855252N20274 1855 12 NA GM NOT_NAMED 1855-09-13 12:00:00 TS 25.8000 -90.2000 main 368 357 _____________O -1 25.8000 -90.2000 HU 90 3 28
1855252N20274 1855 12 NA GM NOT_NAMED 1855-09-13 15:00:00 TS 25.9500 -90.1075 main 357 335 _____________P -1 25.9500 -90.1075 HU 92 4 31
1855252N20274 1855 12 NA GM NOT_NAMED 1855-09-13 18:00:00 TS 26.1000 -90.0000 main 335 322 _____________O -1 26.1000 -90.0000 HU 95 4 38
1855252N20274 1855 12 NA GM NOT_NAMED 1855-09-13 21:00:00 TS 26.2500 -89.8500 main 311 296 _____________P -1 26.2500 -89.8500 HU 95 4 42
1855252N20274 1855 12 NA GM NOT_NAMED 1855-09-14 00:00:00 TS 26.4000 -89.7000 main 296 283 _____________O -1 26.4000 -89.7000 HU 95 4 37
1855252N20274 1855 12 NA GM NOT_NAMED 1855-09-14 03:00:00 TS 26.5500 -89.5924 main 283 259 _____________P -1 26.5500 -89.5924 HU 95 4 30
1855252N20274 1855 12 NA GM NOT_NAMED 1855-09-14 06:00:00 TS 26.7000 -89.5000 main 259 247 _____________O -1 26.7000 -89.5000 HU 95 3 30
1855252N20274 1855 12 NA GM NOT_NAMED 1855-09-14 09:00:00 TS 26.8500 -89.4000 main 247 224 _____________P -1 26.8500 -89.4000 HU 95 4 30
1855252N20274 1855 12 NA GM NOT_NAMED 1855-09-14 12:00:00 TS 27.0000 -89.3000 main 224 212 _____________O -1 27.0000 -89.3000 HU 95 3 31
1855252N20274 1855 12 NA GM NOT_NAMED 1855-09-14 15:00:00 TS 27.1425 -89.2000 main 212 189 _____________P -1 27.1425 -89.2000 HU 95 4 30
1855252N20274 1855 12 NA GM NOT_NAMED 1855-09-14 18:00:00 TS 27.3000 -89.1000 main 189 167 _____________O -1 27.3000 -89.1000 HU 95 4 28
1855252N20274 1855 12 NA GM NOT_NAMED 1855-09-14 21:00:00 TS 27.5000 -88.9925 main 167 167 _____________P -1 27.5000 -88.9925 HU 95 1 61
1855252N20274 1855 12 NA GM NOT_NAMED 1855-09-15 00:00:00 TS 27.3667 -88.9667 70 hurdat_atl main 178 178 O____________O hurdat_atl AL051855 26.7000 -89.1000 HU 70 1 27.7000 -88.9000 HU 95 1 159
1855252N20274 1855 12 NA GM NOT_NAMED 1855-09-15 03:00:00 TS 27.3775 -88.9600 main 178 167 P____________P AL051855 26.9050 -89.0776 HU 75 1 27.8500 -88.8424 HU 97 1 344
1855252N20274 1855 12 NA GM NOT_NAMED 1855-09-15 06:00:00 TS 27.4600 -88.9800 80 hurdat_atl main 167 156 O____________O hurdat_atl AL051855 27.1000 -89.1000 HU 80 1 28.0000 -88.8000 MH 100 2 340
1855252N20274 1855 12 NA GM NOT_NAMED 1855-09-15 09:00:00 TS 27.5850 -89.0375 main 156 133 P____________P AL051855 27.2850 -89.1924 HU 85 2 28.1850 -88.7276 MH 100 4 343
1855252N20274 1855 12 NA GM NOT_NAMED 1855-09-15 12:00:00 TS 27.8000 -89.1000 90 hurdat_atl main 133 100 O____________O hurdat_atl AL051855 27.5000 -89.3000 HU 90 2 28.4000 -88.7000 MH 100 5 347
1855252N20274 1855 12 NA GM NOT_NAMED 1855-09-15 15:00:00 TS 28.0683 -89.1666 main 100 67 P____________P AL051855 27.7775 -89.3576 HU 95 2 28.6500 -88.7848 MH 105 6 348
1855252N20274 1855 12 NA GM NOT_NAMED 1855-09-15 18:00:00 TS 28.3667 -89.2333 100 hurdat_atl main 67 48 O____________O hurdat_atl AL051855 28.1000 -89.4000 HU 100 3 28.9000 -88.9000 MH 110 6 349
1855252N20274 1855 12 NA GM NOT_NAMED 1855-09-15 21:00:00 TS 28.6553 -89.2902 main 38 22 P____________P AL051855 28.4330 -89.4602 HU 105 3 29.1000 -88.9501 MH 110 6 352
1855252N20274 1855 12 NA GM NOT_NAMED 1855-09-16 00:00:00 TS 28.9667 -89.3333 110 hurdat_atl main 11 0 O____________O hurdat_atl AL051855 28.8000 -89.5000 HU 110 3 29.3000 -89.0000 MH 110 7 354
1855252N20274 1855 12 NA NA NOT_NAMED 1855-09-16 03:00:00 TS 29.3142 -89.3666 110 hurdat_atl main 0 0 O____________P hurdat_atl AL051855 29.2000 -89.5000 L HU 110 3 29.5425 -89.0999 MH 110 7 355
1855252N20274 1855 12 NA GM NOT_NAMED 1855-09-16 06:00:00 TS 29.6667 -89.4000 110 hurdat_atl main 0 0 O____________O hurdat_atl AL051855 29.6000 -89.5000 HU 110 3 29.8000 -89.2000 MH 110 6 360
1855252N20274 1855 12 NA NA NOT_NAMED 1855-09-16 09:00:00 TS 29.9570 -89.3967 main 9 9 P____________P AL051855 29.9068 -89.4737 HU 105 3 30.0575 -89.2427 MH 105 6 4
1855252N20274 1855 12 NA GM NOT_NAMED 1855-09-16 12:00:00 TS 30.2333 -89.3667 100 hurdat_atl main 9 0 O____________O hurdat_atl AL051855 30.2000 -89.4000 HU 100 3 30.3000 -89.3000 MH 100 6 6
1855252N20274 1855 12 NA NA NOT_NAMED 1855-09-16 15:00:00 TS 30.5467 -89.3217 main 0 0 P____________P AL051855 30.5700 -89.2650 HU 85 2 30.5000 -89.4350 MH 95 7 8
1855252N20274 1855 12 NA NA NOT_NAMED 1855-09-16 18:00:00 TS 30.9000 -89.2667 70 hurdat_atl main 0 0 O____________O hurdat_atl AL051855 31.0000 -89.1000 HU 70 1 30.7000 -89.6000 HU 90 8 6
1855252N20274 1855 12 NA NA NOT_NAMED 1855-09-16 21:00:00 TS 31.3066 -89.2240 main 0 0 P____________P AL051855 31.4849 -88.9647 HU 60 0 30.9500 -89.7426 HU 80 8 2
1855252N20274 1855 12 NA NA NOT_NAMED 1855-09-17 00:00:00 TS 31.6800 -89.2400 50 hurdat_atl main 0 0 O____________O hurdat_atl AL051855 32.0000 -88.8000 TS 50 0 31.2000 -89.9000 HU 70 7 352
1855252N20274 1855 12 NA NA NOT_NAMED 1855-09-17 03:00:00 TS 31.9526 -89.3317 main 0 0 P____________P AL051855 32.5052 -88.5707 TS 45 0 31.4000 -90.0926 HU 60 5 335
1855252N20274 1855 12 NA NA NOT_NAMED 1855-09-17 06:00:00 TS 32.1600 -89.5000 40 hurdat_atl main 0 0 O____________O hurdat_atl AL051855 33.0000 -88.3000 TS 40 0 31.6000 -90.3000 TS 50 10 263
1855252N20274 1855 12 NA NA NOT_NAMED 1855-09-17 09:00:00 TS 31.8375 -90.5023 main 0 0 _____________P AL051855 TS -1 31.8375 -90.5023 TS 45 10 267
1855252N20274 1855 12 NA NA NOT_NAMED 1855-09-17 12:00:00 TS 32.1000 -90.7000 main 0 _____________O -1 32.1000 -90.7000 TS 40 6 327

IBTrACS Databaseについて

本データベースは、米国NOAAが公開する1842年以降の世界の熱帯低気圧のベストトラックデータアーカイブInternational Best Track Archive for Climate Stewardship (IBTrACS)を、ウェブで閲覧しやすい形式に変換したものです。

最終更新日:2021-10-25